Tropical Cyclones
[Index]
Main Index Home Page Stock Weather Photos Extreme Storms Discussion Storm News and Storm Chasing Reports Tropical Cyclones / Hurricanes / Typhoons Weather Data and Links Wild Fires / Bushfires Weather Observation Techniques Weather Picture Catalogue Tornado Pictures and Reports Stock Video Footage and DVDs for sale
Season 1990-1991 Tropical Cyclone DAPHNE Track Map
Season 1990-1991 Summaries: [BoM-AU] [JTWC-AU] [JTWC-SIO] [JTWC-SPAC] [JTWC-SH]
<<- Previous TC | BoM 1990-1991 Season | Next TC ->>

click for intensity scale information  Lat/long Grid: Show Hide

 Date Labels: Show Hide

Bureau of Meteorology Tropical Cyclone Data

Name: DAPHNE
Number: 736 / 199091_04

21 Feb 1991 00:00 UTC to 28 Feb 1991 12:00 UTC

    date/time    lat    long    hPa   cat  kts
1991-02-21 00   18.1   127.8    997         35          
1991-02-21 06   18.3   126.5    996         37          
1991-02-21 12   18.5   125.2    996         37          
1991-02-21 18   18.7   123.8    996         37          
1991-02-22 00   18.8   122.5    996         37          
1991-02-22 03   18.9   121.9    994    1    41          
1991-02-22 06   18.9   121.3    991    1    45          
1991-02-22 09   19.0   120.6    988    1    49          
1991-02-22 12   19.1   120.1    986    1    52          
1991-02-22 15   19.2   119.3    984    2    56          
1991-02-22 18   19.3   118.5    982    2    58          
1991-02-22 21   19.4   117.9    982    2    58          
1991-02-23 00   19.5   117.4    980    2    60          
1991-02-23 03   19.7   116.7    978    2    64          
1991-02-23 06   20.1   115.9    976    2    66          
1991-02-23 09   20.3   115.1    976    2    66          
1991-02-23 12   20.2   114.5    978    2    64          
1991-02-23 15   20.3   113.9    980    2    60          
1991-02-23 18   20.4   113.3    982    2    58          
1991-02-23 21   20.4   112.9    984    2    56          
1991-02-24 00   20.4   112.7    987    1    51          
1991-02-24 06   20.4   112.3    990    1    47          
1991-02-24 12   20.2   112.3    992    1    43          
1991-02-24 18   20.1   112.3    994    1    41          
1991-02-25 00   20.0   112.4    995    1    39          
1991-02-25 06   20.1   112.5    995    1    39          
1991-02-25 12   20.4   112.3    995    1    39          
1991-02-25 18   20.9   111.9    995    1    39          
1991-02-26 00   21.4   111.5    996         37          
1991-02-26 06   22.5   111.1    996         37          
1991-02-26 12   23.5   110.5    998         35          
1991-02-26 18   24.1   109.6    999         33          
1991-02-27 00   24.6   108.5   1000         31          
1991-02-27 06   25.2   107.4   1000         31          
1991-02-27 12   25.8   106.1   1002         27          
1991-02-27 18   26.4   104.7   1002         27          
1991-02-28 00   27.1   103.4   1004         25          
1991-02-28 06   27.9   102.2   1004         25          
1991-02-28 12   28.9   101.5   1004         25          
Winds are 10-min average.

Tropical cyclone tracks developed by Michael Bath using data from the Bureau of Meteorology and Google Maps.


[Australian Severe Weather index] [Copyright Notice] [Email Contacts] [Search This Site] [Privacy Policy]
Document: tropical_cyclone_daphne.htm Updated: 30 May 2013